Time;durP1;ratioP1;P1;durP2;ratioP2;P2;SDS_P1;SDS_P2;PMS_P1;PMS_P2;Temp;Humidity;BMP_temperature;BMP_pressure;BME280_temperature;BME280_humidity;BME280_pressure;Samples;Min_cycle;Max_cycle;Signal;HPM_P1;HPM_P2
2022/03/02 00:00:21;;;;;;;14.53;7.13;;;;;4.80;102096.00;;;;4906176;29;20234;-70
2022/03/02 00:03:07;;;;;;;17.33;8.23;;;;;4.70;102107.00;;;;4908875;29;20240;-70
2022/03/02 00:05:54;;;;;;;17.67;8.30;;;;;4.70;102116.00;;;;4901222;29;20345;-69
2022/03/02 00:08:41;;;;;;;15.07;7.77;;;;;4.70;102110.00;;;;4910328;29;20893;-69
2022/03/02 00:11:28;;;;;;;13.83;7.93;;;;;4.70;102109.00;;;;4904845;29;20849;-69
2022/03/02 00:14:14;;;;;;;14.40;7.90;;;;;4.70;102100.00;;;;4903578;29;20238;-69
2022/03/02 00:17:01;;;;;;;18.13;7.93;;;;;4.70;102110.00;;;;4897243;29;20229;-69
2022/03/02 00:19:47;;;;;;;15.77;7.47;;;;;4.70;102106.00;;;;4912084;29;20230;-69
2022/03/02 00:22:33;;;;;;;18.23;7.40;;;;;4.70;102106.00;;;;4894205;29;20245;-67
2022/03/02 00:25:21;;;;;;;13.13;7.03;;;;;4.80;102093.00;;;;4912208;29;20244;-69
2022/03/02 00:28:07;;;;;;;17.13;7.10;;;;;4.70;102085.00;;;;4899510;29;20281;-70
2022/03/02 00:30:53;;;;;;;14.47;7.43;;;;;4.70;102089.00;;;;4900825;29;20230;-68
2022/03/02 00:33:40;;;;;;;14.63;7.90;;;;;4.80;102088.00;;;;4894110;29;20242;-69
2022/03/02 00:36:26;;;;;;;13.47;7.30;;;;;4.70;102090.00;;;;4901867;29;20241;-69
2022/03/02 00:39:12;;;;;;;14.73;7.57;;;;;4.60;102089.00;;;;4900884;29;20241;-69
2022/03/02 00:42:00;;;;;;;15.63;7.20;;;;;4.60;102092.00;;;;4893139;29;20234;-67
2022/03/02 00:44:46;;;;;;;17.37;7.50;;;;;4.60;102081.00;;;;4894563;29;20716;-69
2022/03/02 00:47:33;;;;;;;19.57;8.07;;;;;4.50;102085.00;;;;4897827;29;20286;-69
2022/03/02 00:50:20;;;;;;;17.73;8.03;;;;;4.60;102079.00;;;;4891677;29;20394;-69
2022/03/02 00:53:07;;;;;;;15.40;7.73;;;;;4.50;102082.00;;;;4906962;29;20289;-68
2022/03/02 00:55:53;;;;;;;15.50;8.37;;;;;4.50;102083.00;;;;4903301;29;20587;-69
2022/03/02 00:58:41;;;;;;;15.93;7.73;;;;;4.40;102061.00;;;;4901100;29;20234;-70
2022/03/02 01:01:27;;;;;;;18.00;8.40;;;;;4.30;102069.00;;;;4896752;29;20282;-69
2022/03/02 01:04:13;;;;;;;17.03;8.60;;;;;4.20;102060.00;;;;4894744;29;20230;-68
2022/03/02 01:07:00;;;;;;;17.93;7.93;;;;;4.10;102057.00;;;;4906004;29;20267;-70
2022/03/02 01:09:46;;;;;;;16.30;9.13;;;;;4.10;102062.00;;;;4903356;29;20232;-70
2022/03/02 01:12:33;;;;;;;18.13;8.70;;;;;4.20;102047.00;;;;4896266;29;20662;-69
2022/03/02 01:15:21;;;;;;;19.03;9.30;;;;;4.00;102052.00;;;;4906415;29;20304;-69
2022/03/02 01:18:07;;;;;;;17.10;9.63;;;;;4.00;102056.00;;;;4896934;29;20545;-69
2022/03/02 01:20:54;;;;;;;17.10;9.23;;;;;4.10;102051.00;;;;4903129;29;20241;-70
2022/03/02 01:23:40;;;;;;;21.00;10.13;;;;;4.00;102055.00;;;;4900114;29;21006;-69
2022/03/02 01:26:28;;;;;;;19.57;9.33;;;;;3.90;102034.00;;;;4896410;29;20773;-70
2022/03/02 01:29:15;;;;;;;15.63;7.77;;;;;3.90;102041.00;;;;4905239;29;20277;-70
2022/03/02 01:32:05;;;;;;;19.73;7.60;;;;;3.80;102034.00;;;;4911434;29;20229;-71
2022/03/02 01:34:52;;;;;;;14.77;7.30;;;;;3.70;102038.00;;;;4892808;29;20594;-70
2022/03/02 01:37:38;;;;;;;12.97;6.87;;;;;3.60;102012.00;;;;4905020;29;20290;-70
2022/03/02 01:40:25;;;;;;;15.23;7.63;;;;;3.70;102032.00;;;;4896303;29;20238;-70
2022/03/02 01:43:12;;;;;;;13.77;6.97;;;;;3.80;102029.00;;;;4890468;29;20218;-71
2022/03/02 01:45:58;;;;;;;17.50;8.57;;;;;3.70;102026.00;;;;4908298;29;20815;-69
2022/03/02 01:48:47;;;;;;;13.70;6.90;;;;;3.80;102018.00;;;;4891955;29;20250;-70
2022/03/02 01:51:34;;;;;;;17.93;9.10;;;;;3.70;102017.00;;;;4894211;29;20229;-69
2022/03/02 01:54:20;;;;;;;13.53;7.87;;;;;3.70;102013.00;;;;4894583;29;20338;-69
2022/03/02 01:57:07;;;;;;;17.00;8.77;;;;;3.50;102017.00;;;;4897613;29;20225;-68
2022/03/02 01:59:53;;;;;;;16.70;8.23;;;;;3.60;102019.00;;;;4898155;29;20237;-68
2022/03/02 02:02:40;;;;;;;16.17;8.03;;;;;3.60;102015.00;;;;4898935;29;20230;-68
2022/03/02 02:05:28;;;;;;;14.93;8.10;;;;;3.70;102011.00;;;;4908501;29;20236;-69
2022/03/02 02:08:14;;;;;;;15.77;7.80;;;;;3.60;102010.00;;;;4899598;29;20359;-70
2022/03/02 02:11:02;;;;;;;15.13;7.97;;;;;3.60;102005.00;;;;4906940;29;20310;-69
2022/03/02 02:13:48;;;;;;;15.50;7.83;;;;;3.60;102013.00;;;;4892890;29;20233;-69
2022/03/02 02:16:34;;;;;;;16.83;8.20;;;;;3.60;102015.00;;;;4902492;29;20230;-68
2022/03/02 02:19:20;;;;;;;13.60;7.40;;;;;3.60;102009.00;;;;4906972;29;20293;-69
2022/03/02 02:22:08;;;;;;;18.07;8.07;;;;;3.60;102005.00;;;;4897735;29;20866;-69
2022/03/02 02:24:54;;;;;;;19.97;7.83;;;;;3.60;102001.00;;;;4899714;29;20611;-66
2022/03/02 02:27:44;;;;;;;15.37;7.70;;;;;3.50;102001.00;;;;4890582;29;20757;-68
2022/03/02 02:30:31;;;;;;;15.50;7.97;;;;;3.70;102004.00;;;;4900413;29;20234;-69
2022/03/02 02:33:17;;;;;;;16.77;8.40;;;;;3.80;101990.00;;;;4899182;29;20230;-69
2022/03/02 02:36:04;;;;;;;16.53;7.90;;;;;3.90;101991.00;;;;4893103;29;20363;-68
2022/03/02 02:38:53;;;;;;;19.70;9.23;;;;;3.90;101992.00;;;;4908168;29;20311;-68
2022/03/02 02:41:40;;;;;;;17.73;8.40;;;;;3.80;101983.00;;;;4891137;29;20245;-68
2022/03/02 02:44:26;;;;;;;19.70;8.50;;;;;3.70;101978.00;;;;4897761;29;20229;-68
2022/03/02 02:47:13;;;;;;;21.53;9.43;;;;;3.70;101986.00;;;;4890598;29;20238;-68
2022/03/02 02:50:00;;;;;;;17.37;9.80;;;;;3.70;101974.00;;;;4901641;29;20377;-68
2022/03/02 02:52:47;;;;;;;19.97;8.60;;;;;3.60;101983.00;;;;4895050;29;20225;-68
2022/03/02 02:55:37;;;;;;;17.47;9.37;;;;;3.70;101980.00;;;;4897943;29;20227;-69
2022/03/02 02:58:23;;;;;;;16.70;9.10;;;;;3.60;101978.00;;;;4890861;29;20238;-69
2022/03/02 03:01:09;;;;;;;21.53;9.97;;;;;3.60;101979.00;;;;4894893;29;20223;-68
2022/03/02 03:03:56;;;;;;;20.37;9.63;;;;;3.60;101968.00;;;;4890842;29;20226;-69
2022/03/02 03:06:42;;;;;;;23.50;9.87;;;;;3.70;101965.00;;;;4893098;29;20273;-69
2022/03/02 03:09:29;;;;;;;22.73;9.37;;;;;3.60;101967.00;;;;4909817;29;20334;-69
2022/03/02 03:12:16;;;;;;;19.77;9.47;;;;;3.70;101960.00;;;;4890887;29;20235;-69
2022/03/02 03:15:04;;;;;;;18.93;8.47;;;;;3.60;101968.00;;;;4893871;29;20891;-68
2022/03/02 03:17:51;;;;;;;17.20;9.23;;;;;3.50;101962.00;;;;4903458;29;20311;-69
2022/03/02 03:20:37;;;;;;;18.60;9.50;;;;;3.50;101967.00;;;;4913786;29;20701;-68
2022/03/02 03:23:24;;;;;;;18.67;8.87;;;;;3.50;101957.00;;;;4895134;29;20597;-69
2022/03/02 03:26:10;;;;;;;19.70;9.50;;;;;3.60;101965.00;;;;4902213;29;20226;-68
2022/03/02 03:28:58;;;;;;;21.07;9.70;;;;;3.50;101967.00;;;;4909888;29;20236;-69
2022/03/02 03:31:44;;;;;;;18.90;10.00;;;;;3.50;101966.00;;;;4903708;29;20230;-69
2022/03/02 03:34:30;;;;;;;24.37;10.03;;;;;3.60;101968.00;;;;4904423;29;20317;-68
2022/03/02 03:37:17;;;;;;;20.93;10.30;;;;;3.20;101961.00;;;;4901544;29;20230;-69
2022/03/02 03:40:05;;;;;;;22.33;10.57;;;;;3.10;101955.00;;;;4895148;29;20754;-69
2022/03/02 03:42:53;;;;;;;18.73;9.63;;;;;3.10;101961.00;;;;4908327;29;20365;-69
2022/03/02 03:45:40;;;;;;;20.67;10.57;;;;;3.10;101956.00;;;;4900856;29;20226;-69
2022/03/02 03:48:26;;;;;;;20.63;9.83;;;;;3.10;101958.00;;;;4902882;29;20306;-70
2022/03/02 03:51:13;;;;;;;20.40;9.63;;;;;3.00;101960.00;;;;4892852;29;20237;-69
2022/03/02 03:53:59;;;;;;;19.27;9.33;;;;;2.90;101962.00;;;;4901229;29;20234;-67
2022/03/02 03:56:45;;;;;;;20.83;9.00;;;;;2.80;101960.00;;;;4893423;29;20226;-68
2022/03/02 03:59:31;;;;;;;19.13;9.30;;;;;2.80;101949.00;;;;4903994;29;20787;-68
2022/03/02 04:02:19;;;;;;;21.27;10.20;;;;;2.80;101952.00;;;;4897082;29;20711;-69
2022/03/02 04:05:06;;;;;;;24.60;9.20;;;;;2.80;101949.00;;;;4903640;29;20702;-69
2022/03/02 04:07:52;;;;;;;20.53;10.23;;;;;2.80;101946.00;;;;4904279;29;20240;-69
2022/03/02 04:10:39;;;;;;;21.30;9.53;;;;;2.70;101949.00;;;;4901850;29;20229;-68
2022/03/02 04:13:25;;;;;;;22.27;9.97;;;;;2.60;101944.00;;;;4901915;29;20241;-69
2022/03/02 04:16:11;;;;;;;17.90;9.87;;;;;2.70;101932.00;;;;4893681;29;20229;-68
2022/03/02 04:18:59;;;;;;;17.77;9.20;;;;;2.60;101938.00;;;;4896128;29;20254;-69
2022/03/02 04:21:45;;;;;;;20.10;9.37;;;;;2.70;101931.00;;;;4895575;29;20226;-68
2022/03/02 04:24:31;;;;;;;18.93;9.87;;;;;2.70;101931.00;;;;4900942;29;20234;-68
2022/03/02 04:27:18;;;;;;;27.50;10.50;;;;;2.40;101936.00;;;;4897400;29;20241;-68
2022/03/02 04:30:07;;;;;;;19.83;10.30;;;;;2.50;101928.00;;;;4897892;29;20259;-68
2022/03/02 04:32:53;;;;;;;22.57;9.77;;;;;2.30;101940.00;;;;4893169;29;20260;-68
2022/03/02 04:35:41;;;;;;;17.20;8.80;;;;;2.30;101932.00;;;;4900902;29;20355;-68
2022/03/02 04:38:28;;;;;;;19.63;10.17;;;;;2.40;101928.00;;;;4909033;29;20407;-66
2022/03/02 04:41:14;;;;;;;20.47;10.10;;;;;2.20;101925.00;;;;4893219;29;20718;-68
2022/03/02 04:44:00;;;;;;;16.90;9.03;;;;;2.10;101926.00;;;;4905802;29;20233;-69
2022/03/02 04:46:50;;;;;;;17.17;9.67;;;;;2.20;101921.00;;;;4903200;29;20241;-69
2022/03/02 04:49:37;;;;;;;17.33;9.10;;;;;2.10;101919.00;;;;4893249;29;20232;-68
2022/03/02 04:52:24;;;;;;;21.63;9.93;;;;;2.30;101916.00;;;;4893132;29;20246;-68
2022/03/02 04:55:11;;;;;;;21.93;8.87;;;;;2.20;101919.00;;;;4896095;29;20590;-68
2022/03/02 04:58:00;;;;;;;18.47;9.17;;;;;2.40;101915.00;;;;4894437;29;20722;-68
2022/03/02 05:00:46;;;;;;;20.20;9.33;;;;;2.20;101905.00;;;;4894305;29;20238;-66
2022/03/02 05:03:33;;;;;;;21.50;9.07;;;;;2.10;101909.00;;;;4900348;29;20294;-68
2022/03/02 05:06:19;;;;;;;15.70;8.00;;;;;2.10;101906.00;;;;4896914;29;20234;-68
2022/03/02 05:09:06;;;;;;;19.60;9.43;;;;;2.10;101900.00;;;;4900545;29;20242;-69
2022/03/02 05:11:55;;;;;;;21.00;9.77;;;;;2.00;101894.00;;;;4901384;29;20245;-69
2022/03/02 05:14:41;;;;;;;21.63;9.10;;;;;2.00;101891.00;;;;4904168;29;20838;-68
2022/03/02 05:17:27;;;;;;;16.93;9.13;;;;;2.00;101901.00;;;;4900141;29;20234;-68
2022/03/02 05:20:15;;;;;;;23.03;8.97;;;;;2.10;101898.00;;;;4907957;29;20234;-67
2022/03/02 05:23:01;;;;;;;20.33;9.60;;;;;1.90;101893.00;;;;4894050;29;20362;-68
2022/03/02 05:25:49;;;;;;;19.67;9.33;;;;;2.10;101891.00;;;;4891699;29;20234;-68
2022/03/02 05:28:36;;;;;;;16.83;8.77;;;;;2.00;101883.00;;;;4904013;29;20714;-67
2022/03/02 05:31:23;;;;;;;19.83;9.23;;;;;1.90;101898.00;;;;4893588;29;20354;-68
2022/03/02 05:34:10;;;;;;;18.37;9.73;;;;;2.00;101889.00;;;;4892198;29;20254;-68
2022/03/02 05:36:56;;;;;;;20.03;9.03;;;;;2.00;101894.00;;;;4906882;29;20346;-68
2022/03/02 05:39:42;;;;;;;18.00;10.43;;;;;1.80;101889.00;;;;4907305;29;20779;-67
2022/03/02 05:42:30;;;;;;;20.37;9.10;;;;;1.60;101894.00;;;;4893095;29;20270;-68
2022/03/02 05:45:16;;;;;;;21.27;9.50;;;;;1.50;101890.00;;;;4892062;29;20222;-68
2022/03/02 05:48:03;;;;;;;20.27;9.87;;;;;1.60;101896.00;;;;4891871;29;20265;-68
2022/03/02 05:50:49;;;;;;;15.90;8.43;;;;;1.50;101890.00;;;;4899692;29;20953;-70
2022/03/02 05:53:36;;;;;;;20.73;10.07;;;;;1.60;101899.00;;;;4894484;29;20722;-68
2022/03/02 05:56:23;;;;;;;17.07;9.30;;;;;1.60;101898.00;;;;4904299;29;20230;-67
2022/03/02 05:59:12;;;;;;;22.53;10.17;;;;;1.70;101895.00;;;;4897064;29;20237;-69
2022/03/02 06:01:58;;;;;;;19.73;9.07;;;;;1.60;101902.00;;;;4894006;29;20252;-68
2022/03/02 06:04:51;;;;;;;21.60;9.27;;;;;1.60;101895.00;;;;4891639;29;20238;-70
2022/03/02 06:07:37;;;;;;;19.63;10.90;;;;;1.60;101897.00;;;;4899293;29;20410;-69
2022/03/02 06:10:24;;;;;;;22.20;10.50;;;;;1.60;101894.00;;;;4891928;29;20275;-67
2022/03/02 06:13:11;;;;;;;21.80;9.27;;;;;1.40;101898.00;;;;4891316;29;20370;-69
2022/03/02 06:15:59;;;;;;;23.73;10.83;;;;;1.60;101904.00;;;;4892271;29;20254;-68
2022/03/02 06:18:46;;;;;;;21.00;10.17;;;;;1.40;101908.00;;;;4895286;29;20245;-68
2022/03/02 06:21:32;;;;;;;21.93;9.40;;;;;1.30;101923.00;;;;4896796;29;20241;-69
2022/03/02 06:24:19;;;;;;;24.53;10.30;;;;;1.50;101905.00;;;;4891300;29;20233;-69
2022/03/02 06:27:05;;;;;;;18.67;9.43;;;;;1.50;101907.00;;;;4892769;29;20242;-68
2022/03/02 06:29:52;;;;;;;20.27;10.13;;;;;1.50;101904.00;;;;4900172;29;20249;-69
2022/03/02 06:32:40;;;;;;;23.50;12.47;;;;;1.40;101920.00;;;;4900245;29;20274;-68
2022/03/02 06:35:26;;;;;;;18.10;9.93;;;;;1.40;101915.00;;;;4905594;29;20245;-69
2022/03/02 06:38:12;;;;;;;19.03;9.63;;;;;1.50;101916.00;;;;4898808;29;20241;-69
2022/03/02 06:41:02;;;;;;;21.77;10.00;;;;;1.60;101917.00;;;;4891196;29;20243;-67
2022/03/02 06:43:57;;;;;;;16.93;9.13;;;;;1.50;101912.00;;;;4898527;29;20616;-69
2022/03/02 06:46:51;;;;;;;17.30;9.63;;;;;1.60;101918.00;;;;4893077;29;20365;-69
2022/03/02 06:49:52;;;;;;;20.20;9.87;;;;;1.50;101912.00;;;;4900480;29;20737;-69
2022/03/02 06:52:40;;;;;;;20.97;9.93;;;;;1.50;101907.00;;;;4891927;29;20231;-68
2022/03/02 06:55:27;;;;;;;21.00;10.47;;;;;1.60;101911.00;;;;4890913;29;20295;-69
2022/03/02 06:58:15;;;;;;;19.67;9.57;;;;;1.80;101899.00;;;;4893361;29;20371;-68
2022/03/02 07:01:02;;;;;;;20.83;10.40;;;;;1.60;101899.00;;;;4898791;29;20242;-68
2022/03/02 07:03:53;;;;;;;22.80;10.03;;;;;1.50;101911.00;;;;4900404;29;20765;-66
2022/03/02 07:06:41;;;;;;;20.50;10.30;;;;;1.40;101903.00;;;;4891121;29;20267;-68
2022/03/02 07:09:30;;;;;;;22.57;12.03;;;;;1.50;101900.00;;;;4898755;29;20241;-68
2022/03/02 07:12:17;;;;;;;24.57;10.87;;;;;1.50;101885.00;;;;4890719;29;20350;-69
2022/03/02 07:15:05;;;;;;;26.50;12.47;;;;;1.50;101903.00;;;;4898858;29;20264;-67
2022/03/02 07:17:52;;;;;;;26.77;10.27;;;;;1.60;101875.00;;;;4890885;29;20592;-69
2022/03/02 07:20:40;;;;;;;19.20;9.90;;;;;1.70;101906.00;;;;4898536;29;20231;-70
2022/03/02 07:23:35;;;;;;;21.50;10.70;;;;;1.70;101905.00;;;;4890031;29;20764;-69
2022/03/02 07:26:22;;;;;;;25.97;12.73;;;;;2.00;101905.00;;;;4888564;29;20818;-69
2022/03/02 07:29:10;;;;;;;29.20;13.27;;;;;2.10;101907.00;;;;4893562;29;20701;-69
2022/03/02 07:31:58;;;;;;;23.87;11.77;;;;;2.30;101903.00;;;;4902648;29;20555;-70
2022/03/02 07:34:47;;;;;;;26.47;12.27;;;;;2.50;101902.00;;;;4901978;29;20234;-69
2022/03/02 07:37:34;;;;;;;21.40;11.77;;;;;2.60;101903.00;;;;4896278;29;20378;-69
2022/03/02 07:40:22;;;;;;;25.23;11.40;;;;;2.80;101910.00;;;;4894142;29;20231;-69
2022/03/02 07:43:08;;;;;;;28.13;14.57;;;;;3.00;101906.00;;;;4904935;29;20234;-69
2022/03/02 07:45:54;;;;;;;25.53;12.43;;;;;3.00;101902.00;;;;4908004;29;20644;-70
2022/03/02 07:48:41;;;;;;;25.23;12.03;;;;;3.10;101850.00;;;;4890410;29;20244;-70
2022/03/02 07:51:28;;;;;;;24.93;12.03;;;;;3.20;101897.00;;;;4894928;29;20235;-69
2022/03/02 07:54:16;;;;;;;25.00;11.33;;;;;3.40;101898.00;;;;4894006;29;21738;-69
2022/03/02 07:57:05;;;;;;;28.07;11.50;;;;;3.40;101898.00;;;;4897929;29;20239;-70
2022/03/02 07:59:53;;;;;;;25.53;11.40;;;;;3.50;101889.00;;;;4895637;29;20744;-69
2022/03/02 08:02:41;;;;;;;25.40;12.13;;;;;3.70;101900.00;;;;4902196;29;20225;-70
2022/03/02 08:05:28;;;;;;;24.27;11.53;;;;;3.70;101897.00;;;;4903919;29;20291;-68
2022/03/02 08:08:15;;;;;;;25.50;13.00;;;;;3.70;101891.00;;;;4893618;29;20246;-69
2022/03/02 08:11:02;;;;;;;22.50;11.03;;;;;3.90;101874.00;;;;4904150;29;20242;-71
2022/03/02 08:13:49;;;;;;;26.10;11.77;;;;;4.00;101897.00;;;;4900872;29;20323;-70
2022/03/02 08:16:36;;;;;;;20.07;11.13;;;;;4.00;101892.00;;;;4893663;29;20620;-68
2022/03/02 08:19:23;;;;;;;20.40;10.47;;;;;4.10;101901.00;;;;4895470;29;20253;-70
2022/03/02 08:22:13;;;;;;;21.70;10.47;;;;;4.30;101886.00;;;;4912240;29;20720;-70
2022/03/02 08:25:06;;;;;;;20.03;10.23;;;;;4.60;101899.00;;;;4896344;29;20229;-70
2022/03/02 08:27:54;;;;;;;21.67;11.80;;;;;4.50;101903.00;;;;4908840;29;20237;-70
2022/03/02 08:30:43;;;;;;;21.73;11.03;;;;;4.60;101900.00;;;;4893394;29;20881;-69
2022/03/02 08:33:34;;;;;;;19.20;9.83;;;;;4.80;101904.00;;;;4893581;29;20283;-69
2022/03/02 08:36:22;;;;;;;20.10;10.43;;;;;4.70;101885.00;;;;4892788;29;20234;-69
2022/03/02 08:39:10;;;;;;;19.27;9.47;;;;;4.90;101905.00;;;;4893029;29;20610;-69
2022/03/02 08:41:57;;;;;;;18.37;9.23;;;;;5.00;101905.00;;;;4893501;29;20230;-69
2022/03/02 08:44:45;;;;;;;19.10;9.30;;;;;5.10;101882.00;;;;4893127;29;20385;-69
2022/03/02 08:47:34;;;;;;;17.47;8.93;;;;;5.20;101896.00;;;;4905479;29;20281;-70
2022/03/02 08:50:20;;;;;;;19.10;9.53;;;;;5.60;101883.00;;;;4900495;29;20745;-70
2022/03/02 08:53:07;;;;;;;14.73;8.37;;;;;5.70;101877.00;;;;4897446;29;20623;-70
2022/03/02 08:55:54;;;;;;;16.07;8.77;;;;;5.60;101870.00;;;;4911341;29;20233;-69
2022/03/02 08:58:42;;;;;;;16.93;8.23;;;;;5.70;101870.00;;;;4902421;29;20237;-70
2022/03/02 09:01:31;;;;;;;18.93;8.63;;;;;5.90;101874.00;;;;4892936;29;20233;-70
2022/03/02 09:04:19;;;;;;;10.40;6.80;;;;;6.20;101877.00;;;;4892550;29;20241;-70
2022/03/02 09:07:06;;;;;;;15.23;7.27;;;;;6.20;101859.00;;;;4908051;29;20233;-66
2022/03/02 09:09:53;;;;;;;17.00;8.83;;;;;6.40;101828.00;;;;4900415;29;20241;-68
2022/03/02 09:12:39;;;;;;;14.03;7.27;;;;;6.60;101874.00;;;;4897196;29;20774;-69
2022/03/02 09:15:26;;;;;;;14.27;7.40;;;;;6.70;101875.00;;;;4904056;29;20647;-68
2022/03/02 09:18:12;;;;;;;16.37;8.00;;;;;6.90;101863.00;;;;4893815;29;20237;-68
2022/03/02 09:21:02;;;;;;;14.20;6.67;;;;;7.00;101871.00;;;;4899192;29;20234;-69
2022/03/02 09:23:49;;;;;;;13.83;7.57;;;;;7.00;101871.00;;;;4902660;29;20786;-69
2022/03/02 09:26:38;;;;;;;12.50;7.40;;;;;7.20;101864.00;;;;4892455;29;20233;-70
2022/03/02 09:29:29;;;;;;;16.20;7.47;;;;;7.30;101876.00;;;;4898880;29;20273;-68
2022/03/02 09:32:16;;;;;;;12.23;7.37;;;;;7.40;101869.00;;;;4894226;29;20243;-70
2022/03/02 09:35:03;;;;;;;14.87;7.50;;;;;7.50;101874.00;;;;4903042;29;20237;-68
2022/03/02 09:37:53;;;;;;;14.27;8.00;;;;;7.60;101865.00;;;;4900696;29;20878;-69
2022/03/02 09:40:44;;;;;;;14.50;7.43;;;;;7.80;101865.00;;;;4900194;29;20254;-69
2022/03/02 09:43:32;;;;;;;15.33;7.77;;;;;7.90;101860.00;;;;4892377;29;20617;-67
2022/03/02 09:46:22;;;;;;;14.47;7.37;;;;;8.10;101848.00;;;;4891477;29;20234;-70
2022/03/02 09:49:10;;;;;;;13.17;7.37;;;;;8.30;101870.00;;;;4891690;29;20250;-70
2022/03/02 09:52:02;;;;;;;14.97;7.17;;;;;8.40;101870.00;;;;4899531;29;20358;-69
2022/03/02 09:54:53;;;;;;;14.13;7.23;;;;;8.50;101871.00;;;;4898116;29;20234;-68
2022/03/02 09:57:48;;;;;;;12.93;7.53;;;;;8.50;101863.00;;;;4895943;29;20750;-67
2022/03/02 10:00:35;;;;;;;11.80;6.17;;;;;8.60;101855.00;;;;4894960;29;20231;-67
2022/03/02 10:03:24;;;;;;;11.23;6.10;;;;;8.70;101851.00;;;;4894755;29;20235;-70
2022/03/02 10:06:13;;;;;;;10.97;6.47;;;;;9.10;101856.00;;;;4893671;29;20707;-69
2022/03/02 10:09:03;;;;;;;11.47;6.77;;;;;9.10;101850.00;;;;4899410;29;20240;-68
2022/03/02 10:11:52;;;;;;;14.00;6.67;;;;;9.20;101856.00;;;;4905764;29;20240;-68
2022/03/02 10:14:38;;;;;;;12.07;6.50;;;;;9.40;101858.00;;;;4891722;29;21040;-69
2022/03/02 10:17:31;;;;;;;13.33;7.20;;;;;9.50;101852.00;;;;4891040;29;20287;-69
2022/03/02 10:20:20;;;;;;;14.07;7.03;;;;;9.40;101847.00;;;;4898155;29;20236;-68
2022/03/02 10:23:32;;;;;;;11.00;6.63;;;;;9.70;101858.00;;;;4891432;29;20234;-68
2022/03/02 10:26:23;;;;;;;13.00;6.87;;;;;9.70;101853.00;;;;4892281;29;20726;-69
2022/03/02 10:29:20;;;;;;;12.47;7.20;;;;;9.70;101848.00;;;;4907563;29;20246;-68
2022/03/02 10:32:11;;;;;;;14.57;7.63;;;;;9.80;101843.00;;;;4894103;29;20775;-66
2022/03/02 10:35:04;;;;;;;16.10;7.30;;;;;9.80;101854.00;;;;4901631;29;20237;-69
2022/03/02 10:37:53;;;;;;;13.97;7.43;;;;;10.10;101860.00;;;;4897147;29;20237;-70
2022/03/02 10:40:40;;;;;;;12.63;7.60;;;;;10.20;101858.00;;;;4892376;29;20740;-69
2022/03/02 10:43:36;;;;;;;11.10;6.17;;;;;10.10;101850.00;;;;4897003;29;20245;-68
2022/03/02 10:46:25;;;;;;;13.20;6.80;;;;;10.30;101846.00;;;;4898335;29;20233;-69
2022/03/02 10:49:18;;;;;;;13.73;7.10;;;;;10.30;101853.00;;;;4890546;29;20621;-69
2022/03/02 10:52:05;;;;;;;12.43;7.17;;;;;10.40;101846.00;;;;4901236;29;20241;-68
2022/03/02 10:54:55;;;;;;;10.33;6.63;;;;;10.50;101837.00;;;;4900724;29;20363;-70
2022/03/02 10:57:41;;;;;;;13.60;6.87;;;;;10.40;101838.00;;;;4898206;29;20908;-69
2022/03/02 11:00:28;;;;;;;11.47;6.83;;;;;10.70;101828.00;;;;4895555;29;20769;-69
2022/03/02 11:03:16;;;;;;;14.87;6.93;;;;;10.90;101834.00;;;;4896042;29;20238;-66
2022/03/02 11:06:06;;;;;;;11.20;6.93;;;;;10.90;101826.00;;;;4889330;29;20237;-68
2022/03/02 11:08:54;;;;;;;16.57;7.27;;;;;11.20;101829.00;;;;4896036;29;20254;-69
2022/03/02 11:11:42;;;;;;;11.47;6.67;;;;;11.00;101833.00;;;;4898006;29;20245;-68
2022/03/02 11:14:28;;;;;;;15.47;6.50;;;;;11.20;101829.00;;;;4903912;29;20242;-69
2022/03/02 11:17:15;;;;;;;13.07;7.60;;;;;11.10;101829.00;;;;4891049;29;20248;-69
2022/03/02 11:20:11;;;;;;;12.20;6.97;;;;;11.30;101824.00;;;;4901262;29;20289;-70
2022/03/02 11:22:59;;;;;;;12.87;7.13;;;;;11.40;101823.00;;;;4892656;29;20238;-68
2022/03/02 11:25:49;;;;;;;14.07;7.83;;;;;11.40;101826.00;;;;4888010;29;20314;-69
2022/03/02 11:28:36;;;;;;;14.93;7.87;;;;;11.30;101823.00;;;;4899847;29;20293;-70
2022/03/02 11:31:27;;;;;;;16.53;8.50;;;;;11.50;101810.00;;;;4899010;29;20819;-70
2022/03/02 11:34:15;;;;;;;13.57;7.00;;;;;11.40;101822.00;;;;4907376;29;20798;-69
2022/03/02 11:37:06;;;;;;;13.53;7.47;;;;;11.50;101816.00;;;;4904040;29;20238;-70
2022/03/02 11:39:52;;;;;;;15.40;8.13;;;;;11.50;101814.00;;;;4893698;29;20407;-70
2022/03/02 11:42:40;;;;;;;12.40;7.57;;;;;11.50;101812.00;;;;4893058;29;20233;-68
2022/03/02 11:45:37;;;;;;;13.07;7.07;;;;;11.40;101790.00;;;;4907201;29;20310;-68
2022/03/02 11:48:25;;;;;;;11.87;7.20;;;;;11.50;101809.00;;;;4891532;29;20238;-70
2022/03/02 11:51:17;;;;;;;14.50;8.13;;;;;11.50;101801.00;;;;4892143;29;20721;-71
2022/03/02 11:54:09;;;;;;;13.50;7.73;;;;;11.70;101800.00;;;;4903475;29;20294;-69
2022/03/02 11:57:02;;;;;;;13.80;7.90;;;;;11.80;101791.00;;;;4899281;29;20274;-70
2022/03/02 11:59:50;;;;;;;12.67;7.60;;;;;11.60;101792.00;;;;4904461;29;20412;-67
2022/03/02 12:02:42;;;;;;;14.40;7.13;;;;;11.50;101780.00;;;;4891755;29;20226;-69
2022/03/02 12:05:31;;;;;;;14.87;8.33;;;;;11.60;101782.00;;;;4901792;29;20343;-69
2022/03/02 12:08:17;;;;;;;14.60;8.00;;;;;11.90;101774.00;;;;4901275;29;20246;-69
2022/03/02 12:11:12;;;;;;;16.83;7.33;;;;;11.90;101780.00;;;;4901855;29;20245;-69
2022/03/02 12:14:03;;;;;;;12.03;7.03;;;;;12.20;101785.00;;;;4900502;29;20315;-68
2022/03/02 12:16:51;;;;;;;10.93;6.80;;;;;12.10;101782.00;;;;4893751;29;20234;-69
2022/03/02 12:19:37;;;;;;;12.37;7.37;;;;;12.20;101772.00;;;;4905171;29;20229;-68
2022/03/02 12:22:24;;;;;;;12.63;7.00;;;;;12.30;101769.00;;;;4904270;29;20295;-69
2022/03/02 12:25:12;;;;;;;13.60;6.47;;;;;12.40;101763.00;;;;4896368;29;20241;-68
2022/03/02 12:28:01;;;;;;;11.10;6.57;;;;;12.60;101769.00;;;;4895346;29;20382;-69
2022/03/02 12:30:48;;;;;;;12.83;7.57;;;;;12.70;101754.00;;;;4896718;29;20237;-67
2022/03/02 12:33:35;;;;;;;15.23;7.30;;;;;12.70;101751.00;;;;4905144;29;20729;-69
2022/03/02 12:36:41;;;;;;;13.10;7.17;;;;;12.80;101744.00;;;;4893036;29;20242;-68
2022/03/02 12:39:28;;;;;;;13.97;7.13;;;;;12.90;101743.00;;;;4893195;29;20306;-69
2022/03/02 12:42:16;;;;;;;16.50;8.80;;;;;12.90;101740.00;;;;4895387;29;20601;-68
2022/03/02 12:45:05;;;;;;;15.13;8.07;;;;;13.00;101739.00;;;;4900504;29;21023;-68
2022/03/02 12:47:53;;;;;;;14.33;7.83;;;;;12.90;101733.00;;;;4900560;29;20258;-67
2022/03/02 12:50:41;;;;;;;12.60;6.90;;;;;12.90;101739.00;;;;4902336;29;20325;-68
2022/03/02 12:53:28;;;;;;;13.67;7.30;;;;;12.70;101725.00;;;;4899631;29;20312;-66
2022/03/02 12:56:15;;;;;;;13.37;8.07;;;;;13.00;101728.00;;;;4901668;29;20236;-68
2022/03/02 12:59:02;;;;;;;15.47;7.77;;;;;13.20;101734.00;;;;4904113;29;20309;-67
2022/03/02 13:01:49;;;;;;;12.50;7.20;;;;;13.10;101719.00;;;;4897982;29;20630;-68
2022/03/02 13:04:46;;;;;;;10.53;6.60;;;;;13.10;101724.00;;;;4893891;29;20597;-68
2022/03/02 13:07:41;;;;;;;11.47;6.33;;;;;13.10;101719.00;;;;4903544;29;20255;-69
2022/03/02 13:10:27;;;;;;;14.10;6.83;;;;;13.20;101723.00;;;;4904066;29;20246;-68
2022/03/02 13:13:14;;;;;;;14.13;7.50;;;;;13.20;101716.00;;;;4910033;29;20241;-68
2022/03/02 13:16:16;;;;;;;12.57;7.37;;;;;13.30;101712.00;;;;4897544;29;20319;-69
2022/03/02 13:19:16;;;;;;;12.03;6.97;;;;;13.40;101714.00;;;;4901410;29;20318;-68
2022/03/02 13:22:03;;;;;;;10.73;6.77;;;;;13.30;101717.00;;;;4901688;29;20243;-67
2022/03/02 13:24:52;;;;;;;13.07;7.20;;;;;13.10;101712.00;;;;4893736;29;20230;-67
2022/03/02 13:28:09;;;;;;;13.03;7.10;;;;;12.90;101700.00;;;;4919240;29;20238;-69
2022/03/02 13:31:08;;;;;;;12.83;6.97;;;;;12.90;101703.00;;;;4920599;29;20240;-68
2022/03/02 13:34:09;;;;;;;12.33;7.97;;;;;13.10;101715.00;;;;4930052;29;20217;-70
2022/03/02 13:36:57;;;;;;;11.27;6.93;;;;;13.10;101715.00;;;;4928503;29;20282;-70
2022/03/02 13:39:46;;;;;;;12.77;7.80;;;;;13.10;101708.00;;;;4933254;29;20471;-69
2022/03/02 13:42:32;;;;;;;11.53;7.00;;;;;13.00;101713.00;;;;4938488;29;20218;-69
2022/03/02 13:45:18;;;;;;;11.57;6.70;;;;;13.10;101700.00;;;;4922681;29;20251;-67